Time;durP1;ratioP1;P1;durP2;ratioP2;P2;SDS_P1;SDS_P2;PMS_P1;PMS_P2;Temp;Humidity;BMP_temperature;BMP_pressure;BME280_temperature;BME280_humidity;BME280_pressure;Samples;Min_cycle;Max_cycle;Signal;HPM_P1;HPM_P2
2021/10/16 00:02:13;;;;;;;;;;;11.50;99.90;;;;;;4902643;29;19911;-90
2021/10/16 00:04:38;;;;;;;;;;;11.50;99.90;;;;;;4902107;29;20406;-89
2021/10/16 00:07:04;;;;;;;;;;;11.60;99.90;;;;;;4906422;29;19919;-88
2021/10/16 00:09:30;;;;;;;;;;;11.70;99.90;;;;;;4910372;29;19912;-90
2021/10/16 00:11:56;;;;;;;;;;;11.80;99.90;;;;;;4910440;29;19915;-90
2021/10/16 00:14:21;;;;;;;;;;;12.00;99.90;;;;;;4900195;29;19987;-91
2021/10/16 00:16:47;;;;;;;;;;;12.00;99.90;;;;;;4903752;29;19944;-90
2021/10/16 00:19:13;;;;;;;;;;;11.80;99.90;;;;;;4895466;29;19915;-91
2021/10/16 00:21:38;;;;;;;;;;;11.80;99.90;;;;;;4902940;29;19919;-89
2021/10/16 00:24:04;;;;;;;;;;;11.70;99.90;;;;;;4916008;29;19919;-91
2021/10/16 00:26:30;;;;;;;;;;;11.80;99.90;;;;;;4912225;29;19922;-90
2021/10/16 00:28:56;;;;;;;;;;;11.90;99.90;;;;;;4902496;29;19922;-90
2021/10/16 00:31:21;;;;;;;;;;;11.70;99.90;;;;;;4901328;29;19911;-90
2021/10/16 00:33:47;;;;;;;;;;;11.70;99.90;;;;;;4901898;29;19953;-88
2021/10/16 00:36:12;;;;;;;;;;;11.60;99.90;;;;;;4901411;29;19919;-90
2021/10/16 00:38:38;;;;;;;;;;;11.60;99.90;;;;;;4904132;29;19911;-90
2021/10/16 00:41:04;;;;;;;;;;;11.60;99.90;;;;;;4905510;29;20398;-89
2021/10/16 00:43:29;;;;;;;;;;;11.50;99.90;;;;;;4907661;29;19927;-87
2021/10/16 00:45:55;;;;;;;;;;;11.40;99.90;;;;;;4911294;29;19911;-91
2021/10/16 00:48:20;;;;;;;;;;;11.30;99.90;;;;;;4910027;29;20375;-90
2021/10/16 00:50:46;;;;;;;;;;;11.30;99.90;;;;;;4907205;29;19959;-90
2021/10/16 00:53:12;;;;;;;;;;;11.20;99.90;;;;;;4905143;29;19911;-90
2021/10/16 00:55:39;;;;;;;;;;;11.10;99.90;;;;;;4927845;29;19915;-91
2021/10/16 00:58:04;;;;;;;;;;;11.10;99.90;;;;;;4919038;29;19918;-91
2021/10/16 01:00:30;;;;;;;;;;;11.20;99.90;;;;;;4906287;29;19899;-91
2021/10/16 01:02:56;;;;;;;;;;;11.30;99.90;;;;;;4915968;29;19911;-91
2021/10/16 01:05:21;;;;;;;;;;;11.30;99.90;;;;;;4939624;29;19937;-90
2021/10/16 01:07:47;;;;;;;;;;;11.30;99.90;;;;;;4922281;29;19974;-90
2021/10/16 01:10:13;;;;;;;;;;;11.40;99.90;;;;;;4916426;29;20006;-89
2021/10/16 01:12:39;;;;;;;;;;;11.40;99.90;;;;;;4905383;29;19911;-90
2021/10/16 01:15:07;;;;;;;;;;;11.40;99.90;;;;;;4905205;29;19911;-89
2021/10/16 01:18:17;;;;;;;;;;;11.60;99.90;;;;;;4908982;29;19987;-90
2021/10/16 01:20:46;;;;;;;;;;;11.60;99.90;;;;;;4881318;29;19912;-90
2021/10/16 01:23:12;;;;;;;;;;;11.50;99.90;;;;;;4904986;29;19915;-90
2021/10/16 01:25:38;;;;;;;;;;;11.50;99.90;;;;;;4900872;29;20051;-90
2021/10/16 01:28:04;;;;;;;;;;;11.40;99.90;;;;;;4903898;29;19915;-90
2021/10/16 01:30:29;;;;;;;;;;;11.50;99.90;;;;;;4904398;29;20379;-89
2021/10/16 01:32:55;;;;;;;;;;;11.60;99.90;;;;;;4905303;29;19960;-89
2021/10/16 01:35:21;;;;;;;;;;;11.50;99.90;;;;;;4905999;29;20302;-89
2021/10/16 01:37:48;;;;;;;;;;;11.50;99.90;;;;;;4921135;29;19915;-89
2021/10/16 01:40:14;;;;;;;;;;;11.60;99.90;;;;;;4904343;29;20395;-90
2021/10/16 01:42:42;;;;;;;;;;;11.60;99.90;;;;;;4904151;29;20018;-90
2021/10/16 01:45:18;;;;;;;;;;;11.50;99.90;;;;;;4903772;29;19911;-90
2021/10/16 01:47:45;;;;;;;;;;;11.50;99.90;;;;;;4906047;29;19919;-90
2021/10/16 01:50:10;;;;;;;;;;;11.40;99.90;;;;;;4903599;29;19911;-90
2021/10/16 01:52:36;;;;;;;;;;;11.40;99.90;;;;;;4905552;29;19923;-89
2021/10/16 01:55:02;;;;;;;;;;;11.40;99.90;;;;;;4921247;29;19911;-89
2021/10/16 01:57:27;;;;;;;;;;;11.50;99.90;;;;;;4904317;29;19915;-89
2021/10/16 01:59:53;;;;;;;;;;;11.50;99.90;;;;;;4904591;29;19911;-89
2021/10/16 02:02:19;;;;;;;;;;;11.50;99.90;;;;;;4904514;29;19919;-89
2021/10/16 02:04:44;;;;;;;;;;;11.30;99.90;;;;;;4894870;29;20010;-89
2021/10/16 02:07:10;;;;;;;;;;;11.40;99.90;;;;;;4925661;29;19911;-89
2021/10/16 02:09:35;;;;;;;;;;;11.40;99.90;;;;;;4925955;29;19903;-91
2021/10/16 02:12:01;;;;;;;;;;;11.30;99.90;;;;;;4925969;29;19903;-90
2021/10/16 02:14:26;;;;;;;;;;;11.20;99.90;;;;;;4925192;29;19971;-90
2021/10/16 02:16:52;;;;;;;;;;;11.10;99.90;;;;;;4923821;29;19919;-90
2021/10/16 02:19:18;;;;;;;;;;;11.10;99.90;;;;;;4912969;29;19911;-92
2021/10/16 02:21:43;;;;;;;;;;;11.00;99.90;;;;;;4903570;29;19911;-89
2021/10/16 02:24:09;;;;;;;;;;;11.00;99.90;;;;;;4904791;29;19915;-90
2021/10/16 02:26:34;;;;;;;;;;;11.10;99.90;;;;;;4904847;29;19917;-90
2021/10/16 02:29:00;;;;;;;;;;;11.10;99.90;;;;;;4903199;29;19911;-90
2021/10/16 02:31:26;;;;;;;;;;;11.00;99.90;;;;;;4903883;29;19998;-90
2021/10/16 02:33:51;;;;;;;;;;;10.90;99.90;;;;;;4903030;29;19911;-90
2021/10/16 02:36:17;;;;;;;;;;;10.90;99.90;;;;;;4904267;29;19998;-90
2021/10/16 02:38:42;;;;;;;;;;;10.90;99.90;;;;;;4903292;29;19999;-90
2021/10/16 02:41:08;;;;;;;;;;;10.80;99.90;;;;;;4903576;29;19918;-89
2021/10/16 02:43:34;;;;;;;;;;;10.80;99.90;;;;;;4902059;29;19919;-89
2021/10/16 02:45:59;;;;;;;;;;;10.80;99.90;;;;;;4919302;29;20239;-89
2021/10/16 02:48:25;;;;;;;;;;;10.70;99.90;;;;;;4901836;29;19918;-90
2021/10/16 02:50:50;;;;;;;;;;;10.70;99.90;;;;;;4902208;29;19911;-90
2021/10/16 02:53:16;;;;;;;;;;;10.70;99.90;;;;;;4918591;29;20335;-89
2021/10/16 02:55:41;;;;;;;;;;;10.70;99.90;;;;;;4902505;29;19915;-90
2021/10/16 02:58:07;;;;;;;;;;;10.70;99.90;;;;;;4902771;29;19912;-89
2021/10/16 03:00:33;;;;;;;;;;;10.70;99.90;;;;;;4903301;29;19935;-89
2021/10/16 03:02:58;;;;;;;;;;;10.80;99.90;;;;;;4903049;29;20303;-90
2021/10/16 03:05:24;;;;;;;;;;;11.20;99.90;;;;;;4903150;29;20078;-90
2021/10/16 03:07:49;;;;;;;;;;;11.20;99.90;;;;;;4903208;29;19915;-91
2021/10/16 03:10:15;;;;;;;;;;;11.20;99.90;;;;;;4918494;29;19923;-92
2021/10/16 03:12:40;;;;;;;;;;;11.40;99.90;;;;;;4923856;29;19926;-90
2021/10/16 03:15:06;;;;;;;;;;;11.50;99.90;;;;;;4912285;29;19922;-88
2021/10/16 03:17:32;;;;;;;;;;;11.30;99.90;;;;;;4915585;29;19934;-90
2021/10/16 03:19:57;;;;;;;;;;;11.40;99.90;;;;;;4923176;29;19915;-91
2021/10/16 03:22:23;;;;;;;;;;;11.50;99.90;;;;;;4914633;29;19990;-91
2021/10/16 03:24:48;;;;;;;;;;;11.40;99.90;;;;;;4907892;29;20332;-90
2021/10/16 03:27:14;;;;;;;;;;;11.40;99.90;;;;;;4905483;29;20483;-89
2021/10/16 03:29:39;;;;;;;;;;;11.30;99.90;;;;;;4905478;29;19919;-89
2021/10/16 03:32:05;;;;;;;;;;;11.30;99.90;;;;;;4906568;29;19915;-89
2021/10/16 03:34:31;;;;;;;;;;;11.30;99.90;;;;;;4904549;29;19998;-89
2021/10/16 03:36:57;;;;;;;;;;;11.10;99.90;;;;;;4901400;29;19949;-88
2021/10/16 03:39:22;;;;;;;;;;;11.30;99.90;;;;;;4890957;29;20402;-90
2021/10/16 03:41:48;;;;;;;;;;;11.40;99.90;;;;;;4901516;29;19915;-90
2021/10/16 03:44:13;;;;;;;;;;;11.50;99.90;;;;;;4892569;29;19919;-91
2021/10/16 03:46:39;;;;;;;;;;;11.40;99.90;;;;;;4903099;29;19923;-90
2021/10/16 03:49:05;;;;;;;;;;;11.30;99.90;;;;;;4902951;29;19915;-90
2021/10/16 03:51:30;;;;;;;;;;;11.20;99.90;;;;;;4903248;29;19912;-90
2021/10/16 03:53:56;;;;;;;;;;;11.20;99.90;;;;;;4903826;29;19934;-90
2021/10/16 03:56:22;;;;;;;;;;;11.10;99.90;;;;;;4906924;29;20009;-89
2021/10/16 03:58:47;;;;;;;;;;;10.90;99.90;;;;;;4905664;29;20340;-90
2021/10/16 04:01:13;;;;;;;;;;;10.90;99.90;;;;;;4904770;29;20001;-90
2021/10/16 04:03:39;;;;;;;;;;;11.00;99.90;;;;;;4902547;29;19912;-89
2021/10/16 04:06:04;;;;;;;;;;;11.10;99.90;;;;;;4905746;29;19930;-89
2021/10/16 04:08:30;;;;;;;;;;;11.00;99.90;;;;;;4904672;29;19923;-89
2021/10/16 04:10:56;;;;;;;;;;;11.10;99.90;;;;;;4905365;29;19958;-89
2021/10/16 04:14:04;;;;;;;;;;;11.20;99.90;;;;;;4906232;29;20331;-91
2021/10/16 04:16:29;;;;;;;;;;;11.20;99.90;;;;;;4850654;29;19920;-90
2021/10/16 04:18:55;;;;;;;;;;;11.30;99.90;;;;;;4834890;29;19919;-89
2021/10/16 04:21:20;;;;;;;;;;;11.30;99.90;;;;;;4864650;29;19911;-89
2021/10/16 04:23:46;;;;;;;;;;;11.40;99.90;;;;;;4901782;29;19918;-91
2021/10/16 04:26:12;;;;;;;;;;;11.30;99.90;;;;;;4917648;29;19911;-91
2021/10/16 04:28:37;;;;;;;;;;;11.30;99.90;;;;;;4902265;29;20014;-91
2021/10/16 04:31:03;;;;;;;;;;;11.40;99.90;;;;;;4902310;29;19915;-90
2021/10/16 04:33:28;;;;;;;;;;;11.40;99.90;;;;;;4901930;29;19919;-91
2021/10/16 04:36:02;;;;;;;;;;;11.50;99.90;;;;;;4897886;29;19919;-90
2021/10/16 04:38:28;;;;;;;;;;;11.50;99.90;;;;;;4907986;29;19912;-90
2021/10/16 04:40:54;;;;;;;;;;;11.40;99.90;;;;;;4908638;29;19911;-91
2021/10/16 04:43:20;;;;;;;;;;;11.50;99.90;;;;;;4895613;29;19976;-90
2021/10/16 04:45:45;;;;;;;;;;;11.40;99.90;;;;;;4900908;29;19915;-89
2021/10/16 04:48:11;;;;;;;;;;;11.10;99.90;;;;;;4907348;29;19915;-90
2021/10/16 04:50:37;;;;;;;;;;;11.00;99.90;;;;;;4901676;29;20050;-89
2021/10/16 04:53:02;;;;;;;;;;;10.90;99.90;;;;;;4898155;29;19919;-90
2021/10/16 04:55:28;;;;;;;;;;;10.80;99.90;;;;;;4911411;29;19911;-89
2021/10/16 04:57:54;;;;;;;;;;;10.80;99.90;;;;;;4910817;29;19911;-90
2021/10/16 05:00:19;;;;;;;;;;;10.70;99.90;;;;;;4910289;29;19942;-91
2021/10/16 05:02:45;;;;;;;;;;;10.70;99.90;;;;;;4912121;29;19922;-92
2021/10/16 05:05:10;;;;;;;;;;;10.60;99.90;;;;;;4907157;29;19963;-91
2021/10/16 05:07:44;;;;;;;;;;;10.60;99.90;;;;;;4911840;29;19938;-92
2021/10/16 05:10:10;;;;;;;;;;;10.70;99.90;;;;;;4905477;29;19919;-90
2021/10/16 05:12:36;;;;;;;;;;;10.80;99.90;;;;;;4906255;29;19922;-90
2021/10/16 05:15:02;;;;;;;;;;;10.90;99.90;;;;;;4926335;29;20042;-90
2021/10/16 05:17:29;;;;;;;;;;;10.90;99.90;;;;;;4906424;29;19915;-90
2021/10/16 05:19:55;;;;;;;;;;;11.00;99.90;;;;;;4909543;29;19911;-88
2021/10/16 05:22:21;;;;;;;;;;;11.10;99.90;;;;;;4907580;29;19954;-89
2021/10/16 05:24:47;;;;;;;;;;;11.10;99.90;;;;;;4931553;29;19918;-89
2021/10/16 05:33:10;;;;;;;;;;;11.10;99.90;;;;;;5396993;23;19926;-89
2021/10/16 05:35:43;;;;;;;;;;;11.40;99.90;;;;;;4961166;28;19961;-89
2021/10/16 05:38:10;;;;;;;;;;;11.40;99.90;;;;;;4965947;28;19922;-90
2021/10/16 05:40:35;;;;;;;;;;;11.50;99.90;;;;;;4967136;28;19910;-91
2021/10/16 05:43:01;;;;;;;;;;;11.40;99.90;;;;;;4968547;28;19937;-90
2021/10/16 05:53:12;;;;;;;;;;;11.40;99.90;;;;;;5435594;23;19954;-88
2021/10/16 05:55:38;;;;;;;;;;;11.60;99.90;;;;;;4950818;29;19915;-91
2021/10/16 05:58:04;;;;;;;;;;;11.80;99.90;;;;;;4947577;29;19957;-89
2021/10/16 06:00:29;;;;;;;;;;;12.00;99.90;;;;;;4947686;29;20279;-90
2021/10/16 06:09:36;;;;;;;;;;;;;;;;;;;;;
2021/10/16 07:04:46;;;;;;;;;;;14.10;99.90;;;;;;4985248;28;19930;-91
2021/10/16 07:07:12;;;;;;;;;;;14.30;99.90;;;;;;4964542;28;20068;-90
2021/10/16 07:09:37;;;;;;;;;;;14.30;99.90;;;;;;4983503;28;19938;-89
2021/10/16 07:12:03;;;;;;;;;;;14.20;99.90;;;;;;4963590;28;19942;-90
2021/10/16 07:14:29;;;;;;;;;;;14.20;99.90;;;;;;4962521;28;19942;-92
2021/10/16 07:16:54;;;;;;;;;;;14.30;99.90;;;;;;4953559;29;19918;-90
2021/10/16 07:19:20;;;;;;;;;;;14.10;99.90;;;;;;4944579;29;19917;-91
2021/10/16 07:21:46;;;;;;;;;;;14.10;99.90;;;;;;4960607;28;19957;-92
2021/10/16 07:24:11;;;;;;;;;;;14.30;99.90;;;;;;4963290;28;19917;-90
2021/10/16 07:26:39;;;;;;;;;;;14.40;99.90;;;;;;4980572;28;19910;-90
2021/10/16 07:29:05;;;;;;;;;;;14.40;99.90;;;;;;4962733;28;20007;-90
2021/10/16 07:31:31;;;;;;;;;;;14.50;99.90;;;;;;4965888;28;19968;-90
2021/10/16 07:33:59;;;;;;;;;;;14.50;99.90;;;;;;4966064;28;19910;-90
2021/10/16 07:36:28;;;;;;;;;;;14.50;99.90;;;;;;4977513;28;19989;-94
2021/10/16 07:38:53;;;;;;;;;;;14.50;99.90;;;;;;4973973;28;19915;-92
2021/10/16 07:41:19;;;;;;;;;;;14.60;99.90;;;;;;4974700;28;19910;-92
2021/10/16 07:43:45;;;;;;;;;;;14.70;99.90;;;;;;4967359;28;19925;-90
2021/10/16 07:46:10;;;;;;;;;;;14.80;99.90;;;;;;4965139;28;19949;-89
2021/10/16 07:48:36;;;;;;;;;;;14.80;99.90;;;;;;4965343;28;19910;-90
2021/10/16 07:51:01;;;;;;;;;;;14.70;99.90;;;;;;4964400;28;19968;-90
2021/10/16 07:53:27;;;;;;;;;;;14.70;99.90;;;;;;4967132;28;19910;-91
2021/10/16 07:55:53;;;;;;;;;;;14.80;99.90;;;;;;4961091;28;19918;-77
2021/10/16 07:58:19;;;;;;;;;;;14.90;99.90;;;;;;4972326;28;19910;-76
2021/10/16 08:00:45;;;;;;;;;;;15.10;99.90;;;;;;4968579;28;19919;-77
2021/10/16 08:03:11;;;;;;;;;;;15.20;99.90;;;;;;4962325;28;20442;-77
2021/10/16 08:05:36;;;;;;;;;;;15.20;99.90;;;;;;4937205;29;19914;-78
2021/10/16 08:08:02;;;;;;;;;;;15.40;99.90;;;;;;4952968;29;19914;-77
2021/10/16 08:10:30;;;;;;;;;;;15.50;99.90;;;;;;4965434;28;20271;-80
2021/10/16 08:12:56;;;;;;;;;;;15.60;99.90;;;;;;4979257;28;19964;-77
2021/10/16 08:15:21;;;;;;;;;;;15.60;99.90;;;;;;4972416;28;19910;-77
2021/10/16 08:17:47;;;;;;;;;;;15.80;99.90;;;;;;4969368;28;19918;-76
2021/10/16 08:20:12;;;;;;;;;;;15.80;99.90;;;;;;4961373;28;19922;-86
2021/10/16 08:22:42;;;;;;;;;;;15.70;99.90;;;;;;4962022;28;19941;-85
2021/10/16 08:25:11;;;;;;;;;;;15.80;99.90;;;;;;4984526;28;19914;-87
2021/10/16 08:27:37;;;;;;;;;;;15.70;99.90;;;;;;4971368;28;19910;-86
2021/10/16 08:30:03;;;;;;;;;;;15.70;99.90;;;;;;4972014;28;19910;-84
2021/10/16 08:32:29;;;;;;;;;;;15.70;99.90;;;;;;4988663;28;19917;-88
2021/10/16 08:34:54;;;;;;;;;;;15.80;99.90;;;;;;4972957;28;19914;-83
2021/10/16 08:37:20;;;;;;;;;;;15.90;99.90;;;;;;4991854;28;19912;-84
2021/10/16 08:39:46;;;;;;;;;;;16.00;99.90;;;;;;4976960;28;19898;-86
2021/10/16 08:42:11;;;;;;;;;;;16.20;99.90;;;;;;4976951;28;19910;-86
2021/10/16 08:44:37;;;;;;;;;;;16.30;99.90;;;;;;4976342;28;19977;-86
2021/10/16 08:47:02;;;;;;;;;;;16.30;99.90;;;;;;4970942;28;19985;-87
2021/10/16 08:49:30;;;;;;;;;;;16.30;99.90;;;;;;4987379;28;20016;-86
2021/10/16 08:51:55;;;;;;;;;;;16.40;99.90;;;;;;4985552;28;19918;-85
2021/10/16 08:54:21;;;;;;;;;;;16.40;99.90;;;;;;4982922;28;19918;-85
2021/10/16 08:56:46;;;;;;;;;;;16.30;99.90;;;;;;4978286;28;19917;-84
2021/10/16 08:59:12;;;;;;;;;;;16.20;99.90;;;;;;4959537;28;19917;-85
2021/10/16 09:02:00;;;;;;;;;;;16.20;99.90;;;;;;4946741;29;19945;-85
2021/10/16 09:04:26;;;;;;;;;;;16.20;99.90;;;;;;4963956;28;20371;-85
2021/10/16 09:06:57;;;;;;;;;;;16.30;99.90;;;;;;4974273;28;19936;-87
2021/10/16 09:09:27;;;;;;;;;;;16.30;99.90;;;;;;4975836;28;19910;-85
2021/10/16 09:11:56;;;;;;;;;;;16.40;99.90;;;;;;4993265;28;20250;-85
2021/10/16 09:14:21;;;;;;;;;;;16.50;99.90;;;;;;4975957;28;19910;-85
2021/10/16 09:16:48;;;;;;;;;;;16.50;99.90;;;;;;4992826;28;19915;-84
2021/10/16 09:19:16;;;;;;;;;;;16.60;99.90;;;;;;4976552;28;19918;-85
2021/10/16 09:21:44;;;;;;;;;;;16.70;99.90;;;;;;4987535;28;19910;-86
2021/10/16 09:24:11;;;;;;;;;;;16.80;99.90;;;;;;4968942;28;19917;-86
2021/10/16 09:26:39;;;;;;;;;;;16.90;99.90;;;;;;4988701;28;20000;-84
2021/10/16 09:29:05;;;;;;;;;;;16.90;99.90;;;;;;4966670;28;19918;-88
2021/10/16 09:31:34;;;;;;;;;;;17.00;99.90;;;;;;4975376;28;19918;-87
2021/10/16 09:34:00;;;;;;;;;;;17.00;99.90;;;;;;4969725;28;19921;-87
2021/10/16 09:36:26;;;;;;;;;;;17.00;99.90;;;;;;4964470;28;19914;-88
2021/10/16 09:38:52;;;;;;;;;;;17.10;99.90;;;;;;4993630;28;19918;-86
2021/10/16 09:41:21;;;;;;;;;;;17.10;99.90;;;;;;4961480;28;19960;-88
2021/10/16 09:43:47;;;;;;;;;;;17.10;99.90;;;;;;4971150;28;19978;-87
2021/10/16 09:46:13;;;;;;;;;;;17.30;99.90;;;;;;4970841;28;19969;-87
2021/10/16 09:48:39;;;;;;;;;;;17.30;99.90;;;;;;4984661;28;19926;-86
2021/10/16 09:51:04;;;;;;;;;;;17.30;99.90;;;;;;4986991;28;20520;-88
2021/10/16 09:53:30;;;;;;;;;;;17.40;99.90;;;;;;4971714;28;19921;-88
2021/10/16 09:55:56;;;;;;;;;;;17.40;99.90;;;;;;4991939;28;19937;-87
2021/10/16 09:58:22;;;;;;;;;;;17.50;99.90;;;;;;4985463;28;20005;-87
2021/10/16 10:00:49;;;;;;;;;;;17.60;99.90;;;;;;4984946;28;19918;-87
2021/10/16 10:03:14;;;;;;;;;;;17.60;99.90;;;;;;4981258;28;19942;-87
2021/10/16 10:05:41;;;;;;;;;;;17.80;99.90;;;;;;4958707;29;19918;-87
2021/10/16 10:08:06;;;;;;;;;;;17.80;99.90;;;;;;4950661;28;19968;-87
2021/10/16 10:10:32;;;;;;;;;;;17.80;99.90;;;;;;4962987;28;20005;-87
2021/10/16 10:12:58;;;;;;;;;;;17.90;99.90;;;;;;4961681;28;19930;-88
2021/10/16 10:15:23;;;;;;;;;;;18.00;99.90;;;;;;4959971;28;19942;-87
2021/10/16 10:17:49;;;;;;;;;;;18.10;99.90;;;;;;4988613;28;19974;-87
2021/10/16 10:20:15;;;;;;;;;;;18.10;99.90;;;;;;4976574;28;19917;-88
2021/10/16 10:22:41;;;;;;;;;;;18.10;99.90;;;;;;4994141;28;19940;-87
2021/10/16 10:25:28;;;;;;;;;;;18.10;99.90;;;;;;4981356;28;19977;-88
2021/10/16 10:27:55;;;;;;;;;;;18.00;99.90;;;;;;4984088;28;19910;-87
2021/10/16 10:30:36;;;;;;;;;;;18.00;99.90;;;;;;4965686;28;20006;-87
2021/10/16 10:33:22;;;;;;;;;;;18.00;99.90;;;;;;4965910;28;19910;-88
2021/10/16 10:35:48;;;;;;;;;;;18.10;99.90;;;;;;4965250;28;20008;-86
2021/10/16 10:38:33;;;;;;;;;;;18.30;99.90;;;;;;4965171;28;20009;-89
2021/10/16 10:41:18;;;;;;;;;;;18.30;99.90;;;;;;4972544;28;19918;-88
2021/10/16 10:43:44;;;;;;;;;;;18.40;99.90;;;;;;4994568;28;19993;-88
2021/10/16 10:46:12;;;;;;;;;;;18.40;99.90;;;;;;4975952;28;19914;-87
2021/10/16 10:48:44;;;;;;;;;;;18.30;99.90;;;;;;4985118;28;19910;-88
2021/10/16 10:51:25;;;;;;;;;;;18.40;99.90;;;;;;4980330;28;19965;-86
2021/10/16 10:54:07;;;;;;;;;;;18.40;99.90;;;;;;4967451;28;20337;-88
2021/10/16 10:56:38;;;;;;;;;;;18.50;99.90;;;;;;4962653;28;19937;-89
2021/10/16 10:59:06;;;;;;;;;;;18.50;99.90;;;;;;4979447;28;20370;-86
2021/10/16 11:01:41;;;;;;;;;;;18.40;99.90;;;;;;4961164;28;19921;-87
2021/10/16 11:04:06;;;;;;;;;;;18.60;99.90;;;;;;4964327;28;19917;-87
2021/10/16 11:06:32;;;;;;;;;;;18.60;99.90;;;;;;4979445;28;19919;-86
2021/10/16 11:09:17;;;;;;;;;;;18.60;99.90;;;;;;4994108;28;19914;-87
2021/10/16 11:11:47;;;;;;;;;;;18.50;99.90;;;;;;4957126;29;20386;-87
2021/10/16 11:14:13;;;;;;;;;;;18.50;99.90;;;;;;4960348;28;19937;-86
2021/10/16 11:16:55;;;;;;;;;;;18.50;99.90;;;;;;4970379;28;19922;-86
2021/10/16 11:19:20;;;;;;;;;;;18.60;99.90;;;;;;4987102;28;20015;-88
2021/10/16 11:21:53;;;;;;;;;;;18.60;99.90;;;;;;4965496;28;19911;-88
2021/10/16 11:24:19;;;;;;;;;;;18.60;99.90;;;;;;4968617;28;20017;-89
2021/10/16 11:27:03;;;;;;;;;;;18.80;99.90;;;;;;4968024;28;20535;-88
2021/10/16 11:29:33;;;;;;;;;;;18.80;99.90;;;;;;4967731;28;19922;-88
2021/10/16 11:32:25;;;;;;;;;;;18.70;99.90;;;;;;4981789;28;19933;-90
2021/10/16 11:34:54;;;;;;;;;;;18.60;99.90;;;;;;4960996;28;19914;-87
2021/10/16 11:37:36;;;;;;;;;;;18.80;99.90;;;;;;4987602;28;19914;-86
2021/10/16 11:40:05;;;;;;;;;;;18.70;99.90;;;;;;4982176;28;19917;-88
2021/10/16 11:42:30;;;;;;;;;;;18.80;99.90;;;;;;4965719;28;20458;-89
2021/10/16 11:44:56;;;;;;;;;;;18.80;99.90;;;;;;4978756;28;19952;-85
2021/10/16 11:47:21;;;;;;;;;;;18.80;99.90;;;;;;4978266;28;20005;-87
2021/10/16 11:49:47;;;;;;;;;;;18.80;99.90;;;;;;4959924;28;19914;-87
2021/10/16 11:52:25;;;;;;;;;;;18.80;99.90;;;;;;4977503;28;19917;-88
2021/10/16 11:55:09;;;;;;;;;;;18.80;99.90;;;;;;4960044;28;20013;-88
2021/10/16 11:57:40;;;;;;;;;;;18.80;99.90;;;;;;4978293;28;20111;-88
2021/10/16 12:00:23;;;;;;;;;;;18.90;99.90;;;;;;4979043;28;19910;-87
2021/10/16 12:02:48;;;;;;;;;;;18.70;99.90;;;;;;4977415;28;20369;-88
2021/10/16 12:05:18;;;;;;;;;;;18.70;99.90;;;;;;4958636;28;19914;-88
2021/10/16 12:07:44;;;;;;;;;;;18.70;99.90;;;;;;4978192;28;19910;-87
2021/10/16 12:10:44;;;;;;;;;;;;;;;;;;;;;
2021/10/16 12:13:48;;;;;;;;;;;18.80;99.90;;;;;;4975966;28;20017;-88
2021/10/16 12:16:18;;;;;;;;;;;18.80;99.90;;;;;;4977071;28;19921;-89
2021/10/16 12:19:02;;;;;;;;;;;18.90;99.90;;;;;;4957524;28;20373;-88
2021/10/16 12:21:32;;;;;;;;;;;18.90;99.90;;;;;;4958170;28;19960;-88
2021/10/16 12:23:59;;;;;;;;;;;18.80;99.90;;;;;;4959429;28;19945;-86
2021/10/16 12:26:28;;;;;;;;;;;18.90;99.90;;;;;;4948384;28;19922;-86
2021/10/16 12:28:54;;;;;;;;;;;18.90;99.90;;;;;;4963086;28;19914;-86
2021/10/16 12:31:21;;;;;;;;;;;18.90;99.90;;;;;;4975419;28;19958;-86
2021/10/16 12:33:58;;;;;;;;;;;19.00;99.90;;;;;;4977524;28;19914;-86
2021/10/16 12:36:28;;;;;;;;;;;19.00;99.90;;;;;;4979948;28;19914;-86
2021/10/16 12:38:54;;;;;;;;;;;19.00;99.90;;;;;;4962074;28;19914;-87
2021/10/16 12:41:33;;;;;;;;;;;19.00;99.90;;;;;;4979755;28;20254;-86
2021/10/16 12:44:11;;;;;;;;;;;19.00;99.90;;;;;;4962547;28;19914;-87
2021/10/16 12:46:37;;;;;;;;;;;19.00;99.90;;;;;;4982741;28;19914;-88
2021/10/16 12:49:27;;;;;;;;;;;19.00;99.90;;;;;;4985961;28;19914;-87
2021/10/16 12:51:54;;;;;;;;;;;19.00;99.90;;;;;;4971341;28;19923;-85
2021/10/16 12:54:49;;;;;;;;;;;19.00;99.90;;;;;;4982047;28;19914;-85
2021/10/16 12:57:14;;;;;;;;;;;19.00;99.90;;;;;;4948685;29;20021;-84
2021/10/16 12:59:40;;;;;;;;;;;19.10;99.90;;;;;;4975126;28;19957;-84
2021/10/16 13:02:06;;;;;;;;;;;19.10;99.90;;;;;;4982384;28;19942;-84
2021/10/16 13:04:50;;;;;;;;;;;19.00;99.90;;;;;;4984104;28;19962;-86
2021/10/16 13:07:16;;;;;;;;;;;19.00;99.90;;;;;;4965701;28;19910;-85
2021/10/16 13:09:42;;;;;;;;;;;19.00;99.90;;;;;;4982217;28;19914;-84
2021/10/16 13:12:08;;;;;;;;;;;19.10;99.90;;;;;;4980087;28;20005;-86
2021/10/16 13:14:34;;;;;;;;;;;19.10;99.90;;;;;;4970963;28;19915;-88
2021/10/16 13:16:59;;;;;;;;;;;19.20;99.90;;;;;;4954969;28;20371;-86
2021/10/16 13:19:25;;;;;;;;;;;19.30;99.90;;;;;;4976135;28;19915;-86
2021/10/16 13:21:53;;;;;;;;;;;19.30;99.90;;;;;;4974035;28;19911;-86
2021/10/16 13:24:18;;;;;;;;;;;19.30;99.90;;;;;;4969851;28;19910;-85
2021/10/16 13:26:44;;;;;;;;;;;19.20;99.90;;;;;;4994030;28;19910;-85
2021/10/16 13:29:10;;;;;;;;;;;19.20;99.90;;;;;;4989647;28;20041;-87
2021/10/16 13:31:35;;;;;;;;;;;19.30;99.90;;;;;;4984546;28;19941;-84
2021/10/16 13:34:01;;;;;;;;;;;19.30;99.90;;;;;;4965684;28;19910;-84
2021/10/16 13:36:27;;;;;;;;;;;19.30;99.90;;;;;;4965120;28;19918;-85
2021/10/16 13:38:52;;;;;;;;;;;19.40;99.90;;;;;;4982024;28;19966;-86
2021/10/16 13:41:18;;;;;;;;;;;19.40;99.90;;;;;;4968393;28;19914;-85
2021/10/16 13:43:44;;;;;;;;;;;19.50;99.90;;;;;;4988650;28;19934;-85
2021/10/16 13:46:10;;;;;;;;;;;19.40;99.90;;;;;;4970066;28;19914;-84
2021/10/16 13:48:35;;;;;;;;;;;19.50;99.90;;;;;;4988530;28;20428;-84
2021/10/16 13:51:01;;;;;;;;;;;19.40;99.90;;;;;;4985482;28;20377;-85
2021/10/16 13:53:26;;;;;;;;;;;19.40;99.90;;;;;;4965469;28;19970;-85
2021/10/16 13:55:52;;;;;;;;;;;19.30;99.90;;;;;;4976240;28;20462;-85
2021/10/16 13:58:18;;;;;;;;;;;19.20;99.90;;;;;;4964548;28;20385;-87
2021/10/16 14:00:43;;;;;;;;;;;19.10;99.90;;;;;;4962930;28;19973;-86
2021/10/16 14:03:09;;;;;;;;;;;19.10;99.90;;;;;;4960872;28;19918;-87
2021/10/16 14:05:35;;;;;;;;;;;19.10;99.90;;;;;;4964911;28;19918;-88
2021/10/16 14:08:00;;;;;;;;;;;19.20;99.90;;;;;;4965129;28;19921;-86
2021/10/16 14:10:29;;;;;;;;;;;19.20;99.90;;;;;;4973557;28;20012;-86
2021/10/16 14:12:54;;;;;;;;;;;19.20;99.90;;;;;;4963459;28;20425;-86
2021/10/16 14:15:20;;;;;;;;;;;19.20;99.90;;;;;;4964112;28;19910;-87
2021/10/16 14:17:46;;;;;;;;;;;19.20;99.90;;;;;;4962618;28;19918;-85
2021/10/16 14:20:11;;;;;;;;;;;19.20;99.90;;;;;;4985812;28;19910;-85
2021/10/16 14:22:37;;;;;;;;;;;19.20;99.90;;;;;;4966031;28;19910;-87
2021/10/16 14:25:03;;;;;;;;;;;19.20;99.90;;;;;;4964808;28;19910;-88
2021/10/16 14:27:29;;;;;;;;;;;19.20;99.90;;;;;;4960410;28;19965;-87
2021/10/16 14:29:55;;;;;;;;;;;19.20;99.90;;;;;;4975808;28;19914;-85
2021/10/16 14:32:22;;;;;;;;;;;19.00;99.90;;;;;;4952321;28;19922;-87
2021/10/16 14:34:48;;;;;;;;;;;19.10;99.90;;;;;;4941067;29;19917;-85
2021/10/16 14:37:13;;;;;;;;;;;19.00;99.90;;;;;;4941229;29;19969;-85
2021/10/16 14:39:39;;;;;;;;;;;19.10;99.90;;;;;;4941880;29;19915;-87
2021/10/16 14:42:05;;;;;;;;;;;19.00;99.90;;;;;;4958204;28;19944;-86
2021/10/16 14:44:30;;;;;;;;;;;19.00;99.90;;;;;;4941803;29;19910;-87
2021/10/16 14:46:58;;;;;;;;;;;19.00;99.90;;;;;;4940286;28;19914;-88
2021/10/16 14:49:24;;;;;;;;;;;19.00;99.90;;;;;;4959585;28;19917;-87
2021/10/16 14:51:49;;;;;;;;;;;19.00;99.90;;;;;;4961669;28;19910;-86
2021/10/16 14:54:15;;;;;;;;;;;19.00;99.90;;;;;;4960019;28;19932;-87
2021/10/16 14:56:41;;;;;;;;;;;19.00;99.90;;;;;;4976924;28;20378;-88
2021/10/16 14:59:06;;;;;;;;;;;19.00;99.90;;;;;;4960022;28;20005;-88
2021/10/16 15:01:32;;;;;;;;;;;19.00;99.90;;;;;;4962255;28;19921;-89
2021/10/16 15:03:58;;;;;;;;;;;19.00;99.90;;;;;;4956706;28;20001;-88
2021/10/16 15:06:24;;;;;;;;;;;19.00;99.90;;;;;;4959113;28;19914;-85
2021/10/16 15:08:51;;;;;;;;;;;18.90;99.90;;;;;;4958897;28;20796;-86
2021/10/16 15:11:17;;;;;;;;;;;18.80;99.90;;;;;;4955491;28;19911;-87
2021/10/16 15:13:43;;;;;;;;;;;18.80;99.90;;;;;;4973136;28;19938;-86
2021/10/16 15:16:08;;;;;;;;;;;18.80;99.90;;;;;;4959157;28;19914;-86
2021/10/16 15:18:34;;;;;;;;;;;18.70;99.90;;;;;;4957639;28;20001;-85
2021/10/16 15:21:00;;;;;;;;;;;18.80;99.90;;;;;;4954578;28;20295;-84
2021/10/16 15:23:25;;;;;;;;;;;18.70;99.90;;;;;;4979898;28;19929;-85
2021/10/16 15:25:51;;;;;;;;;;;18.70;99.90;;;;;;4961805;28;19910;-86
2021/10/16 15:28:16;;;;;;;;;;;18.70;99.90;;;;;;4978173;28;19911;-85
2021/10/16 15:30:42;;;;;;;;;;;18.60;99.90;;;;;;4979195;28;19911;-86
2021/10/16 15:33:08;;;;;;;;;;;18.50;99.90;;;;;;4970303;28;20085;-88
2021/10/16 15:35:34;;;;;;;;;;;18.40;99.90;;;;;;4960551;29;19915;-85